Time;durP1;ratioP1;P1;durP2;ratioP2;P2;SDS_P1;SDS_P2;PMS_P1;PMS_P2;Temp;Humidity;BMP_temperature;BMP_pressure;BME280_temperature;BME280_humidity;BME280_pressure;Samples;Min_cycle;Max_cycle;Signal;HPM_P1;HPM_P2
2023/07/12 07:09:39;;;;;;;0.10;0.10;;;20.60;99.90;;;;;;8259364;28;20057;-84
2023/07/12 07:13:39;;;;;;;0.20;0.20;;;21.00;99.90;;;;;;8255304;28;20526;-84
2023/07/12 07:17:40;;;;;;;0.20;0.20;;;21.30;99.90;;;;;;8294191;28;20093;-84
2023/07/12 07:21:41;;;;;;;0.20;0.20;;;21.60;99.90;;;;;;8281238;28;20407;-84
2023/07/12 07:25:41;;;;;;;0.20;0.20;;;21.80;99.90;;;;;;8280749;28;20108;-85
2023/07/12 07:29:42;;;;;;;0.20;0.20;;;22.20;99.90;;;;;;8298648;28;20026;-84
2023/07/12 07:33:43;;;;;;;0.20;0.20;;;22.30;99.90;;;;;;8297926;28;20551;-84
2023/07/12 07:37:45;;;;;;;0.10;0.10;;;22.50;99.90;;;;;;8280877;28;20029;-84
2023/07/12 07:41:46;;;;;;;1.45;1.38;;;22.50;99.90;;;;;;8278184;28;20464;-84
2023/07/12 07:45:46;;;;;;;0.20;0.20;;;22.40;99.90;;;;;;8279672;28;20022;-83
2023/07/12 07:49:47;;;;;;;0.10;0.10;;;22.40;99.90;;;;;;8291759;28;20396;-84
2023/07/12 07:53:47;;;;;;;0.10;0.10;;;22.70;99.90;;;;;;8277229;28;20030;-83
2023/07/12 07:57:48;;;;;;;0.10;0.10;;;22.90;99.90;;;;;;8296620;28;20032;-83
2023/07/12 08:01:49;;;;;;;0.20;0.20;;;23.30;99.90;;;;;;8278979;28;20049;-83
2023/07/12 08:05:49;;;;;;;0.10;0.10;;;23.60;99.90;;;;;;8287264;28;20029;-84
2023/07/12 08:09:50;;;;;;;0.10;0.10;;;23.90;99.90;;;;;;8295861;28;20022;-82
2023/07/12 08:13:51;;;;;;;0.10;0.10;;;24.10;99.90;;;;;;8276340;28;20113;-84
2023/07/12 08:17:52;;;;;;;0.13;0.13;;;24.60;99.90;;;;;;8296445;28;20026;-84
2023/07/12 08:21:52;;;;;;;0.70;0.70;;;25.20;99.90;;;;;;8279330;28;20108;-84
2023/07/12 08:25:53;;;;;;;0.47;0.47;;;25.60;99.90;;;;;;8294887;28;20628;-84
2023/07/12 08:29:53;;;;;;;0.10;0.10;;;25.80;99.90;;;;;;8271527;28;20030;-83
2023/07/12 08:34:41;;;;;;;0.25;0.25;;;26.00;99.90;;;;;;8295259;28;20113;-83
2023/07/12 08:43:38;;;;;;;0.10;0.10;;;26.20;99.90;;;;;;8286816;28;20140;-82
2023/07/12 08:47:40;;;;;;;0.10;0.10;;;26.50;99.90;;;;;;8261456;28;20026;-82
2023/07/12 08:51:42;;;;;;;0.68;0.68;;;26.80;99.90;;;;;;8266853;28;20499;-82
2023/07/12 08:55:43;;;;;;;0.10;0.10;;;26.60;99.90;;;;;;8261668;28;20554;-81
2023/07/12 09:09:39;;;;;;;2.00;1.85;;;26.10;99.90;;;;;;8252416;28;20514;-80
2023/07/12 09:13:40;;;;;;;0.75;0.75;;;26.00;99.90;;;;;;8286385;28;20030;-80
2023/07/12 09:17:44;;;;;;;0.45;0.45;;;26.40;99.90;;;;;;8276200;28;20026;-80
2023/07/12 09:31:41;;;;;;;0.10;0.10;;;28.10;99.90;;;;;;8268681;28;20157;-80
2023/07/12 09:35:47;;;;;;;0.25;0.25;;;28.80;99.90;;;;;;8273480;28;20022;-80
2023/07/12 09:39:57;;;;;;;1.48;1.15;;;28.70;99.90;;;;;;8292591;28;20026;-81
2023/07/12 09:49:05;;;;;;;0.28;0.28;;;29.10;99.90;;;;;;8272318;28;20161;-80
2023/07/12 09:53:20;;;;;;;0.10;0.10;;;29.20;99.90;;;;;;8240864;28;20038;-81
2023/07/12 09:57:46;;;;;;;0.52;0.52;;;29.00;99.90;;;;;;8250317;28;20041;-81
2023/07/12 10:07:19;;;;;;;0.10;0.10;;;28.80;99.90;;;;;;8253586;28;20061;-79
2023/07/12 10:11:44;;;;;;;9.63;5.60;;;28.10;99.90;;;;;;8263056;28;20022;-79
2023/07/12 10:15:46;;;;;;;14.38;6.05;;;28.10;99.90;;;;;;8226155;28;20044;-80
2023/07/12 10:24:58;;;;;;;16.30;6.40;;;28.60;99.90;;;;;;8255611;28;20451;-80
2023/07/12 10:29:19;;;;;;;13.55;6.43;;;29.00;99.90;;;;;;8243593;28;20030;-80
2023/07/12 10:38:21;;;;;;;12.18;6.30;;;29.90;99.90;;;;;;8272094;28;20175;-80
2023/07/12 10:42:42;;;;;;;12.15;5.95;;;29.70;99.90;;;;;;8271752;28;20052;-82
2023/07/12 10:46:46;;;;;;;11.00;5.68;;;29.80;99.90;;;;;;8272116;28;20510;-80
2023/07/12 10:50:49;;;;;;;13.75;5.80;;;30.70;99.90;;;;;;8269383;28;20034;-80
2023/07/12 10:55:02;;;;;;;12.70;6.45;;;30.70;99.90;;;;;;8277008;28;20026;-80
2023/07/12 11:13:44;;;;;;;9.20;6.07;;;32.70;99.90;;;;;;8239480;28;20277;-81
2023/07/12 11:22:52;;;;;;;10.15;5.93;;;32.70;99.90;;;;;;8253311;28;20057;-81
2023/07/12 11:32:32;;;;;;;13.07;6.03;;;33.20;99.90;;;;;;8280483;28;20046;-80
2023/07/12 11:36:35;;;;;;;11.68;5.70;;;31.30;99.90;;;;;;8265158;28;20018;-81
2023/07/12 11:40:38;;;;;;;10.00;6.78;;;29.90;99.90;;;;;;8240405;28;20069;-80
2023/07/12 11:44:38;;;;;;;7.43;5.78;;;29.50;99.90;;;;;;8250047;28;20085;-80
2023/07/12 11:48:42;;;;;;;9.20;5.60;;;30.10;99.90;;;;;;8243469;28;20030;-81
2023/07/12 11:52:43;;;;;;;11.95;6.22;;;30.40;99.90;;;;;;8247293;28;20029;-81
2023/07/12 11:56:44;;;;;;;10.45;5.70;;;30.20;99.90;;;;;;8279432;28;20022;-80
2023/07/12 12:00:46;;;;;;;12.02;5.85;;;30.30;99.90;;;;;;8251879;28;20104;-81
2023/07/12 12:04:55;;;;;;;11.25;5.70;;;30.10;99.90;;;;;;8262745;28;20038;-81
2023/07/12 12:08:56;;;;;;;10.95;6.13;;;30.00;99.90;;;;;;8261834;28;20445;-81
2023/07/12 12:12:57;;;;;;;10.70;6.03;;;30.40;99.90;;;;;;8242802;28;20033;-81
2023/07/12 12:17:05;;;;;;;9.68;5.70;;;32.20;99.90;;;;;;8264021;28;20088;-82
2023/07/12 12:21:15;;;;;;;8.77;5.50;;;33.60;99.90;;;;;;8262717;28;20054;-81
2023/07/12 12:25:49;;;;;;;12.23;6.03;;;34.40;99.90;;;;;;8253433;28;20022;-80
2023/07/12 12:29:49;;;;;;;10.07;5.57;;;32.10;99.90;;;;;;8270220;28;20031;-81
2023/07/12 12:34:12;;;;;;;13.02;6.50;;;30.50;99.90;;;;;;8254456;28;20116;-81
2023/07/12 12:38:23;;;;;;;11.52;5.80;;;29.90;99.90;;;;;;8266867;28;20034;-82
2023/07/12 12:42:25;;;;;;;10.85;6.15;;;31.90;99.90;;;;;;8267162;28;20041;-81
2023/07/12 12:46:27;;;;;;;11.80;6.18;;;31.70;99.90;;;;;;8260742;28;20048;-81
2023/07/12 12:50:28;;;;;;;11.77;5.70;;;33.90;99.90;;;;;;8258511;28;20042;-81
2023/07/12 12:54:28;;;;;;;9.77;5.30;;;35.10;99.90;;;;;;8257492;28;20641;-81
2023/07/12 12:58:29;;;;;;;11.65;6.28;;;34.70;99.80;;;;;;8252444;28;20042;-81
2023/07/12 13:02:29;;;;;;;11.35;5.90;;;33.60;99.90;;;;;;8236075;28;20041;-81
2023/07/12 13:06:30;;;;;;;9.55;6.40;;;34.90;99.90;;;;;;8273407;28;20754;-80
2023/07/12 13:10:31;;;;;;;10.02;6.00;;;33.80;99.90;;;;;;8255568;28;20050;-83
2023/07/12 13:14:31;;;;;;;11.73;6.35;;;33.20;99.90;;;;;;8258349;28;20036;-82
2023/07/12 13:18:32;;;;;;;18.20;6.38;;;31.90;99.90;;;;;;8243522;28;20025;-80
2023/07/12 13:22:33;;;;;;;8.55;5.35;;;31.30;99.90;;;;;;8273763;28;20034;-80
2023/07/12 13:26:37;;;;;;;8.85;5.40;;;32.40;99.90;;;;;;8240128;28;20473;-81
2023/07/12 13:30:38;;;;;;;12.57;5.60;;;33.40;99.90;;;;;;8276060;28;20026;-81
2023/07/12 13:34:39;;;;;;;12.52;5.82;;;32.30;99.90;;;;;;8270422;28;20030;-81
2023/07/12 13:38:39;;;;;;;7.65;5.00;;;29.60;99.90;;;;;;8247253;28;20054;-81
2023/07/12 13:42:43;;;;;;;6.40;4.40;;;25.50;99.90;;;;;;8263022;28;20024;-82
2023/07/12 13:46:44;;;;;;;8.30;4.63;;;23.40;99.90;;;;;;8257133;28;20030;-82
2023/07/12 13:50:45;;;;;;;6.63;4.28;;;22.60;99.90;;;;;;8251630;28;20034;-82
2023/07/12 13:54:46;;;;;;;7.47;3.80;;;22.20;99.90;;;;;;8242927;28;20121;-81
2023/07/12 13:58:47;;;;;;;8.93;3.70;;;21.90;99.90;;;;;;8239505;28;20030;-81
2023/07/12 14:02:52;;;;;;;7.45;3.78;;;22.20;99.90;;;;;;8242166;28;20492;-81
2023/07/12 14:06:53;;;;;;;6.05;3.70;;;22.30;99.90;;;;;;8272798;28;20052;-81
2023/07/12 14:10:53;;;;;;;5.97;3.90;;;21.90;99.90;;;;;;8248761;28;20077;-81
2023/07/12 14:14:55;;;;;;;5.50;3.70;;;21.60;99.90;;;;;;8257023;28;20085;-82
2023/07/12 14:18:58;;;;;;;6.38;3.53;;;21.50;99.90;;;;;;8261926;28;20105;-82
2023/07/12 14:22:58;;;;;;;9.93;4.22;;;21.30;99.90;;;;;;8247395;28;20041;-80
2023/07/12 14:26:59;;;;;;;22.75;7.05;;;20.70;99.90;;;;;;8263434;28;20029;-85
2023/07/12 14:30:59;;;;;;;15.50;5.90;;;20.00;99.90;;;;;;8240368;28;20034;-87
2023/07/12 14:35:02;;;;;;;14.43;6.38;;;19.00;99.90;;;;;;8258706;28;20084;-87
2023/07/12 14:39:03;;;;;;;17.83;6.88;;;18.50;99.90;;;;;;8261532;28;20026;-89
2023/07/12 14:43:11;;;;;;;8.88;6.65;;;18.70;99.90;;;;;;8275633;28;20113;-88
2023/07/12 14:47:13;;;;;;;8.73;6.38;;;18.90;99.90;;;;;;8262377;28;20023;-87
2023/07/12 14:51:20;;;;;;;10.02;7.00;;;19.10;99.90;;;;;;8254434;28;20031;-87
2023/07/12 14:55:21;;;;;;;11.77;7.53;;;19.10;99.90;;;;;;8259549;28;20113;-87
2023/07/12 14:59:21;;;;;;;12.77;8.02;;;19.10;99.90;;;;;;8275991;28;20014;-87
2023/07/12 15:03:23;;;;;;;14.45;7.75;;;19.10;99.90;;;;;;8261797;28;20030;-87
2023/07/12 15:07:34;;;;;;;12.15;7.72;;;19.40;99.90;;;;;;8271809;28;20049;-86
2023/07/12 15:11:35;;;;;;;10.50;6.15;;;19.30;99.90;;;;;;8268350;28;20026;-86
2023/07/12 15:15:36;;;;;;;12.98;7.65;;;19.40;99.90;;;;;;8258775;28;20053;-87
2023/07/12 15:19:36;;;;;;;8.63;6.72;;;19.40;99.90;;;;;;8288262;28;20029;-85
2023/07/12 15:23:37;;;;;;;11.30;7.40;;;19.60;99.90;;;;;;8270139;28;20121;-86
2023/07/12 15:27:37;;;;;;;10.55;7.45;;;19.70;99.90;;;;;;8267223;28;20030;-86
2023/07/12 15:31:38;;;;;;;11.15;6.70;;;20.20;99.90;;;;;;8249035;28;20480;-87
2023/07/12 15:35:39;;;;;;;12.98;7.13;;;20.30;99.90;;;;;;8262744;28;20050;-86
2023/07/12 15:39:42;;;;;;;11.55;7.18;;;19.90;99.90;;;;;;8255884;28;20514;-86
2023/07/12 15:43:46;;;;;;;9.85;6.97;;;19.70;99.90;;;;;;8273293;28;20054;-86
2023/07/12 15:47:46;;;;;;;9.98;7.00;;;19.60;99.90;;;;;;8248674;28;20034;-86
2023/07/12 15:51:48;;;;;;;13.00;7.50;;;19.80;99.90;;;;;;8252510;28;20030;-86
2023/07/12 15:55:49;;;;;;;11.43;6.78;;;19.90;99.90;;;;;;8270368;28;20399;-86
2023/07/12 15:59:50;;;;;;;12.57;7.18;;;19.90;99.90;;;;;;8273705;28;20077;-85
2023/07/12 16:03:51;;;;;;;10.27;6.95;;;20.10;99.90;;;;;;8265023;28;20026;-83
2023/07/12 16:07:52;;;;;;;11.82;8.20;;;20.10;99.90;;;;;;8272728;28;20042;-84
2023/07/12 16:11:52;;;;;;;10.45;7.80;;;20.10;99.90;;;;;;8261561;28;20121;-84
2023/07/12 16:15:53;;;;;;;14.30;8.23;;;20.10;99.90;;;;;;8252702;28;20022;-85
2023/07/12 16:19:55;;;;;;;11.52;8.07;;;20.10;99.90;;;;;;8265863;28;20030;-83
2023/07/12 16:23:57;;;;;;;10.02;8.25;;;20.30;99.90;;;;;;8262053;28;20022;-83
2023/07/12 16:27:57;;;;;;;10.80;8.55;;;20.00;99.90;;;;;;8269587;28;20026;-84
2023/07/12 16:31:59;;;;;;;12.65;8.40;;;19.80;99.90;;;;;;8268311;28;20495;-84
2023/07/12 16:35:59;;;;;;;13.25;8.05;;;19.80;99.90;;;;;;8263946;28;20029;-84
2023/07/12 16:40:00;;;;;;;11.25;9.00;;;20.00;99.90;;;;;;8268667;28;20726;-84
2023/07/12 16:44:01;;;;;;;11.90;8.73;;;20.10;99.90;;;;;;8264034;28;20027;-83
2023/07/12 16:48:04;;;;;;;13.13;8.95;;;20.10;99.90;;;;;;8245587;28;20027;-84
2023/07/12 16:52:08;;;;;;;12.32;8.75;;;20.20;99.90;;;;;;8275659;28;20030;-83
2023/07/12 16:56:15;;;;;;;12.05;9.75;;;19.80;99.90;;;;;;8252460;28;20418;-83
2023/07/12 17:00:17;;;;;;;13.95;10.02;;;19.60;99.90;;;;;;8270083;28;20026;-83
2023/07/12 17:04:19;;;;;;;15.20;9.82;;;19.70;99.90;;;;;;8276483;28;20042;-83
2023/07/12 17:08:24;;;;;;;13.52;10.30;;;19.90;99.90;;;;;;8251873;28;20060;-83
2023/07/12 17:12:29;;;;;;;14.77;11.10;;;19.90;99.90;;;;;;8245816;28;20034;-83
2023/07/12 17:16:29;;;;;;;17.10;11.45;;;19.90;99.90;;;;;;8249454;28;20041;-83
2023/07/12 17:20:33;;;;;;;16.55;11.75;;;19.90;99.90;;;;;;8262491;28;20456;-82
2023/07/12 17:24:33;;;;;;;12.60;10.70;;;20.00;99.90;;;;;;8256020;28;20030;-83
2023/07/12 17:28:34;;;;;;;14.05;11.77;;;20.40;99.90;;;;;;8252229;28;20101;-83
2023/07/12 17:32:35;;;;;;;19.45;11.48;;;20.50;99.90;;;;;;8238912;28;20037;-83
2023/07/12 17:36:36;;;;;;;18.33;11.40;;;20.40;99.90;;;;;;8240218;28;20022;-83
2023/07/12 17:40:38;;;;;;;16.98;12.70;;;20.60;99.90;;;;;;8241262;28;20038;-83
2023/07/12 17:44:38;;;;;;;18.50;12.68;;;20.20;99.90;;;;;;8262535;28;20026;-82
2023/07/12 17:48:40;;;;;;;18.00;13.38;;;20.00;99.90;;;;;;8261489;28;20077;-82
2023/07/12 17:52:40;;;;;;;19.30;14.13;;;19.70;99.90;;;;;;8271633;28;20080;-81
2023/07/12 17:56:41;;;;;;;24.35;14.23;;;19.50;99.90;;;;;;8256248;28;20459;-82
2023/07/12 18:00:44;;;;;;;19.48;12.10;;;19.50;99.90;;;;;;8254948;28;20392;-82
2023/07/12 18:04:45;;;;;;;15.48;12.98;;;19.50;99.90;;;;;;8264955;28;20027;-82
2023/07/12 18:08:45;;;;;;;18.88;13.38;;;19.50;99.90;;;;;;8264126;28;20492;-82
2023/07/12 18:12:46;;;;;;;22.20;14.98;;;19.50;99.90;;;;;;8254947;28;20029;-81
2023/07/12 18:16:48;;;;;;;17.52;14.88;;;19.60;99.90;;;;;;8262997;28;20048;-81
2023/07/12 18:20:50;;;;;;;23.27;14.38;;;19.80;99.90;;;;;;8249315;28;20018;-83
2023/07/12 18:24:51;;;;;;;21.85;13.02;;;19.80;99.90;;;;;;8259240;28;20031;-82
2023/07/12 18:28:52;;;;;;;28.27;14.25;;;20.20;99.90;;;;;;8249300;28;20033;-82
2023/07/12 18:32:52;;;;;;;20.10;14.02;;;19.90;99.90;;;;;;8265897;28;20022;-83
2023/07/12 18:36:53;;;;;;;22.42;14.40;;;19.80;99.90;;;;;;8261074;28;20492;-80
2023/07/12 18:40:54;;;;;;;25.10;15.00;;;19.80;99.90;;;;;;8277430;28;20101;-81
2023/07/12 18:44:55;;;;;;;27.45;15.30;;;19.60;99.90;;;;;;8278753;28;20687;-84
2023/07/12 18:48:55;;;;;;;25.80;13.05;;;19.70;99.90;;;;;;8280443;28;20092;-86
2023/07/12 18:52:57;;;;;;;125.50;19.65;;;20.10;99.90;;;;;;8265010;28;20061;-85
2023/07/12 18:56:57;;;;;;;44.60;18.42;;;19.90;99.90;;;;;;8266575;28;20022;-85
2023/07/12 19:00:58;;;;;;;24.17;14.15;;;20.00;99.90;;;;;;8279594;28;20069;-83
2023/07/12 19:15:02;;;;;;;12.23;10.25;;;19.50;99.90;;;;;;8265859;28;20396;-81
2023/07/12 19:19:03;;;;;;;11.57;7.63;;;19.40;99.90;;;;;;8256313;28;20038;-85
2023/07/12 19:23:13;;;;;;;0.10;0.10;;;19.20;99.90;;;;;;8228273;28;20027;-81
2023/07/12 19:27:17;;;;;;;1.80;1.20;;;19.10;99.90;;;;;;8227528;28;20038;-84
2023/07/12 19:31:29;;;;;;;0.30;0.30;;;18.90;99.90;;;;;;8210042;28;20512;-85
2023/07/12 19:35:32;;;;;;;0.10;0.10;;;18.80;99.90;;;;;;8238536;28;20033;-84
2023/07/12 19:39:33;;;;;;;0.10;0.10;;;18.90;99.90;;;;;;8237426;28;20025;-84
2023/07/12 19:43:33;;;;;;;0.10;0.10;;;18.60;99.90;;;;;;8222651;28;20027;-83
2023/07/12 19:47:34;;;;;;;1.05;1.00;;;18.60;99.90;;;;;;8228919;28;20035;-83
2023/07/12 19:51:36;;;;;;;0.10;0.10;;;19.00;99.90;;;;;;8223068;28;20034;-85
2023/07/12 19:55:36;;;;;;;0.10;0.10;;;18.80;99.90;;;;;;8220701;28;20015;-85
2023/07/12 19:59:37;;;;;;;0.10;0.10;;;18.60;99.90;;;;;;8219686;28;20033;-85
2023/07/12 20:03:38;;;;;;;0.00;0.00;;;18.40;99.90;;;;;;8247650;28;20035;-83
2023/07/12 20:07:40;;;;;;;0.10;0.10;;;18.40;99.90;;;;;;8241813;28;20118;-84
2023/07/12 20:11:41;;;;;;;0.10;0.10;;;18.40;99.90;;;;;;8227259;28;20054;-85
2023/07/12 20:15:41;;;;;;;0.10;0.10;;;18.30;99.90;;;;;;8221883;28;20022;-84
2023/07/12 20:19:42;;;;;;;0.10;0.10;;;18.10;99.90;;;;;;8232831;28;20022;-84
2023/07/12 20:23:42;;;;;;;0.10;0.10;;;17.80;99.90;;;;;;8216148;28;20031;-85
2023/07/12 20:27:52;;;;;;;0.10;0.10;;;17.70;99.90;;;;;;8223795;28;20027;-85
2023/07/12 20:31:52;;;;;;;0.50;0.50;;;17.70;99.90;;;;;;8216775;28;20500;-85
2023/07/12 20:35:53;;;;;;;0.10;0.10;;;17.80;99.90;;;;;;8220028;28;20062;-85
2023/07/12 20:39:54;;;;;;;0.10;0.10;;;17.90;99.90;;;;;;8228803;28;20015;-84
2023/07/12 20:43:57;;;;;;;0.10;0.10;;;17.80;99.90;;;;;;8234735;28;20286;-83
2023/07/12 20:48:00;;;;;;;0.10;0.10;;;17.70;99.90;;;;;;8215925;28;21600;-84
2023/07/12 20:52:02;;;;;;;0.10;0.10;;;17.70;99.90;;;;;;8237385;28;20023;-84
2023/07/12 20:56:04;;;;;;;0.10;0.10;;;17.50;99.90;;;;;;8221073;28;20022;-84
2023/07/12 21:00:10;;;;;;;0.00;0.00;;;17.60;99.90;;;;;;8236847;28;20023;-84
2023/07/12 21:04:10;;;;;;;0.10;0.10;;;17.50;99.90;;;;;;8234127;28;20022;-84
2023/07/12 21:08:12;;;;;;;0.10;0.10;;;17.30;99.90;;;;;;8217027;28;20034;-84
2023/07/12 21:12:13;;;;;;;0.10;0.10;;;17.30;99.90;;;;;;8220384;28;20051;-85
2023/07/12 21:16:16;;;;;;;0.38;0.38;;;17.50;99.90;;;;;;8219985;28;20404;-84
2023/07/12 21:20:16;;;;;;;0.10;0.10;;;17.40;99.90;;;;;;8218099;28;20543;-84
2023/07/12 21:24:17;;;;;;;0.10;0.10;;;17.30;99.90;;;;;;8218316;28;20019;-84
2023/07/12 21:28:18;;;;;;;0.10;0.10;;;17.40;99.90;;;;;;8220733;28;20050;-84
2023/07/12 21:32:18;;;;;;;0.25;0.25;;;17.30;99.90;;;;;;8219881;28;20031;-83
2023/07/12 21:36:19;;;;;;;0.10;0.10;;;17.40;99.90;;;;;;8223907;28;20026;-84
2023/07/12 21:40:19;;;;;;;0.10;0.10;;;17.30;99.90;;;;;;8223757;28;20022;-84
2023/07/12 21:44:20;;;;;;;0.10;0.10;;;17.20;99.90;;;;;;8222983;28;20051;-84
2023/07/12 21:48:21;;;;;;;0.10;0.10;;;17.20;99.90;;;;;;8217001;28;20027;-84
2023/07/12 21:52:21;;;;;;;0.47;0.47;;;17.20;99.90;;;;;;8213365;28;20050;-85
2023/07/12 21:56:22;;;;;;;0.10;0.10;;;17.30;99.90;;;;;;8220135;28;20026;-84
2023/07/12 22:00:23;;;;;;;0.10;0.10;;;17.40;99.90;;;;;;8222607;28;20497;-84
2023/07/12 22:04:23;;;;;;;0.10;0.10;;;17.10;99.90;;;;;;8229907;28;20027;-83
2023/07/12 22:08:37;;;;;;;0.10;0.10;;;17.10;99.90;;;;;;8219970;28;20038;-83
2023/07/12 22:12:38;;;;;;;0.10;0.10;;;17.30;99.90;;;;;;8221649;28;20033;-82
2023/07/12 22:16:39;;;;;;;0.10;0.10;;;17.30;99.90;;;;;;8218532;28;20400;-83
2023/07/12 22:20:40;;;;;;;0.10;0.10;;;17.20;99.90;;;;;;8235650;28;20043;-82
2023/07/12 22:24:41;;;;;;;0.10;0.10;;;17.10;99.90;;;;;;8234827;28;20022;-83
2023/07/12 22:28:42;;;;;;;0.10;0.10;;;17.30;99.90;;;;;;8216676;28;20033;-83
2023/07/12 22:32:44;;;;;;;0.10;0.10;;;17.20;99.90;;;;;;8217379;28;20396;-83
2023/07/12 22:36:44;;;;;;;0.10;0.10;;;17.10;99.90;;;;;;8217507;28;20484;-83
2023/07/12 22:40:46;;;;;;;0.10;0.10;;;17.20;99.90;;;;;;8234787;28;20077;-83
2023/07/12 22:44:47;;;;;;;0.20;0.20;;;17.30;99.90;;;;;;8217371;28;20027;-83
2023/07/12 22:48:48;;;;;;;0.43;0.40;;;17.30;99.90;;;;;;8238686;28;20085;-83
2023/07/12 22:52:49;;;;;;;0.50;0.50;;;17.40;99.90;;;;;;8220255;28;20026;-83
2023/07/12 22:56:50;;;;;;;0.10;0.10;;;17.50;99.90;;;;;;8223015;28;20015;-84
2023/07/12 23:00:50;;;;;;;0.35;0.35;;;17.80;99.90;;;;;;8222988;28;20049;-82
2023/07/12 23:04:51;;;;;;;0.10;0.10;;;17.80;99.90;;;;;;8223064;28;20201;-83
2023/07/12 23:08:52;;;;;;;0.10;0.10;;;17.80;99.90;;;;;;8222561;28;20078;-84
2023/07/12 23:12:58;;;;;;;0.10;0.10;;;17.90;99.90;;;;;;8223291;28;20106;-84
2023/07/12 23:16:58;;;;;;;0.10;0.10;;;18.00;99.90;;;;;;8223477;28;20018;-84
2023/07/12 23:21:08;;;;;;;0.10;0.10;;;18.10;99.90;;;;;;8224069;28;20030;-84
2023/07/12 23:25:09;;;;;;;0.03;0.03;;;18.10;99.90;;;;;;8223739;28;20493;-82
2023/07/12 23:29:10;;;;;;;0.10;0.10;;;18.00;99.90;;;;;;8259716;28;20030;-84
2023/07/12 23:33:11;;;;;;;0.10;0.10;;;18.00;99.90;;;;;;8223072;28;20488;-83
2023/07/12 23:37:12;;;;;;;0.30;0.30;;;17.90;99.90;;;;;;8242197;28;20031;-84
2023/07/12 23:41:13;;;;;;;1.35;0.95;;;17.80;99.90;;;;;;8224273;28;20015;-84
2023/07/12 23:45:14;;;;;;;0.57;0.43;;;17.70;99.90;;;;;;8223613;28;20022;-83
2023/07/12 23:49:14;;;;;;;0.10;0.10;;;17.60;99.90;;;;;;8221954;28;20027;-83
2023/07/12 23:53:15;;;;;;;0.10;0.10;;;17.60;99.90;;;;;;8220881;28;20404;-82
2023/07/12 23:57:15;;;;;;;0.10;0.10;;;17.60;99.90;;;;;;8221848;28;20499;-82
